sensor_id;sensor_type;location;lat;lon;timestamp;P1;durP1;ratioP1;P2;durP2;ratioP2
17818;SDS011;9034;50.284;19.310;2022-12-11T00:00:36;37.13;;;19.25;;
17818;SDS011;9034;50.284;19.310;2022-12-11T00:01:38;38.58;;;20.58;;
17818;SDS011;9034;50.284;19.310;2022-12-11T00:02:42;37.30;;;17.52;;
17818;SDS011;9034;50.284;19.310;2022-12-11T00:03:44;32.88;;;17.58;;
17818;SDS011;9034;50.284;19.310;2022-12-11T00:04:48;28.52;;;17.13;;
17818;SDS011;9034;50.284;19.310;2022-12-11T00:05:51;33.35;;;17.73;;
17818;SDS011;9034;50.284;19.310;2022-12-11T00:06:53;39.90;;;21.20;;
17818;SDS011;9034;50.284;19.310;2022-12-11T00:07:55;38.33;;;19.65;;
17818;SDS011;9034;50.284;19.310;2022-12-11T00:08:58;36.28;;;20.58;;
17818;SDS011;9034;50.284;19.310;2022-12-11T00:10:01;32.60;;;18.73;;
17818;SDS011;9034;50.284;19.310;2022-12-11T00:11:03;34.92;;;20.40;;
17818;SDS011;9034;50.284;19.310;2022-12-11T00:12:07;31.13;;;18.08;;
17818;SDS011;9034;50.284;19.310;2022-12-11T00:13:09;31.58;;;16.95;;
17818;SDS011;9034;50.284;19.310;2022-12-11T00:14:12;30.38;;;16.95;;
17818;SDS011;9034;50.284;19.310;2022-12-11T00:15:14;30.80;;;15.98;;
17818;SDS011;9034;50.284;19.310;2022-12-11T00:16:17;31.58;;;16.48;;
17818;SDS011;9034;50.284;19.310;2022-12-11T00:17:26;28.98;;;15.90;;
17818;SDS011;9034;50.284;19.310;2022-12-11T00:18:31;41.15;;;23.88;;
17818;SDS011;9034;50.284;19.310;2022-12-11T00:19:33;37.53;;;19.95;;
17818;SDS011;9034;50.284;19.310;2022-12-11T00:20:36;34.97;;;20.15;;
17818;SDS011;9034;50.284;19.310;2022-12-11T00:21:38;29.00;;;17.23;;
17818;SDS011;9034;50.284;19.310;2022-12-11T00:22:41;28.42;;;15.50;;
17818;SDS011;9034;50.284;19.310;2022-12-11T00:23:43;27.27;;;16.42;;
17818;SDS011;9034;50.284;19.310;2022-12-11T00:24:46;30.00;;;17.50;;
17818;SDS011;9034;50.284;19.310;2022-12-11T00:25:47;30.73;;;18.23;;
17818;SDS011;9034;50.284;19.310;2022-12-11T00:26:50;29.30;;;17.00;;
17818;SDS011;9034;50.284;19.310;2022-12-11T00:27:53;32.13;;;17.08;;
17818;SDS011;9034;50.284;19.310;2022-12-11T00:28:56;29.77;;;16.60;;
17818;SDS011;9034;50.284;19.310;2022-12-11T00:29:58;28.02;;;16.90;;
17818;SDS011;9034;50.284;19.310;2022-12-11T00:31:02;27.77;;;16.25;;
17818;SDS011;9034;50.284;19.310;2022-12-11T00:32:05;26.85;;;15.23;;
17818;SDS011;9034;50.284;19.310;2022-12-11T00:33:08;27.95;;;16.08;;
17818;SDS011;9034;50.284;19.310;2022-12-11T00:34:12;27.42;;;15.93;;
17818;SDS011;9034;50.284;19.310;2022-12-11T00:35:15;25.75;;;14.93;;
17818;SDS011;9034;50.284;19.310;2022-12-11T00:36:18;27.35;;;14.73;;
17818;SDS011;9034;50.284;19.310;2022-12-11T00:37:21;28.80;;;15.32;;
17818;SDS011;9034;50.284;19.310;2022-12-11T00:38:24;26.20;;;14.65;;
17818;SDS011;9034;50.284;19.310;2022-12-11T00:39:26;29.30;;;15.77;;
17818;SDS011;9034;50.284;19.310;2022-12-11T00:40:31;26.30;;;15.20;;
17818;SDS011;9034;50.284;19.310;2022-12-11T00:41:33;24.58;;;15.15;;
17818;SDS011;9034;50.284;19.310;2022-12-11T00:42:36;25.00;;;14.63;;
17818;SDS011;9034;50.284;19.310;2022-12-11T00:43:38;28.52;;;15.88;;
17818;SDS011;9034;50.284;19.310;2022-12-11T00:44:41;30.00;;;17.33;;
17818;SDS011;9034;50.284;19.310;2022-12-11T00:45:43;25.45;;;16.52;;
17818;SDS011;9034;50.284;19.310;2022-12-11T00:46:47;30.70;;;17.38;;
17818;SDS011;9034;50.284;19.310;2022-12-11T00:47:50;30.38;;;17.35;;
17818;SDS011;9034;50.284;19.310;2022-12-11T00:48:51;29.05;;;16.52;;
17818;SDS011;9034;50.284;19.310;2022-12-11T00:49:56;31.35;;;17.52;;
17818;SDS011;9034;50.284;19.310;2022-12-11T00:51:00;27.48;;;15.07;;
17818;SDS011;9034;50.284;19.310;2022-12-11T00:52:02;28.25;;;15.98;;
17818;SDS011;9034;50.284;19.310;2022-12-11T00:53:05;29.70;;;17.55;;
17818;SDS011;9034;50.284;19.310;2022-12-11T00:54:07;28.42;;;16.73;;
17818;SDS011;9034;50.284;19.310;2022-12-11T00:55:10;26.85;;;16.23;;
17818;SDS011;9034;50.284;19.310;2022-12-11T00:56:13;28.83;;;16.35;;
17818;SDS011;9034;50.284;19.310;2022-12-11T00:57:17;28.30;;;16.15;;
17818;SDS011;9034;50.284;19.310;2022-12-11T00:58:20;26.75;;;16.25;;
17818;SDS011;9034;50.284;19.310;2022-12-11T00:59:22;30.00;;;16.77;;
17818;SDS011;9034;50.284;19.310;2022-12-11T01:00:25;34.10;;;17.45;;
17818;SDS011;9034;50.284;19.310;2022-12-11T01:01:27;29.48;;;16.52;;
17818;SDS011;9034;50.284;19.310;2022-12-11T01:02:30;26.50;;;16.02;;
17818;SDS011;9034;50.284;19.310;2022-12-11T01:03:31;29.95;;;18.17;;
17818;SDS011;9034;50.284;19.310;2022-12-11T01:04:34;31.05;;;17.42;;
17818;SDS011;9034;50.284;19.310;2022-12-11T01:05:38;27.50;;;17.08;;
17818;SDS011;9034;50.284;19.310;2022-12-11T01:06:41;25.48;;;15.80;;
17818;SDS011;9034;50.284;19.310;2022-12-11T01:07:42;25.75;;;15.48;;
17818;SDS011;9034;50.284;19.310;2022-12-11T01:08:45;29.02;;;16.88;;
17818;SDS011;9034;50.284;19.310;2022-12-11T01:09:49;28.25;;;16.98;;
17818;SDS011;9034;50.284;19.310;2022-12-11T01:11:10;27.73;;;14.85;;
17818;SDS011;9034;50.284;19.310;2022-12-11T01:12:15;29.85;;;16.92;;
17818;SDS011;9034;50.284;19.310;2022-12-11T01:13:18;33.05;;;17.45;;
17818;SDS011;9034;50.284;19.310;2022-12-11T01:14:20;28.52;;;16.50;;
17818;SDS011;9034;50.284;19.310;2022-12-11T01:15:23;33.72;;;19.52;;
17818;SDS011;9034;50.284;19.310;2022-12-11T01:16:26;33.33;;;18.23;;
17818;SDS011;9034;50.284;19.310;2022-12-11T01:17:29;31.60;;;18.67;;
17818;SDS011;9034;50.284;19.310;2022-12-11T01:18:31;33.33;;;18.90;;
17818;SDS011;9034;50.284;19.310;2022-12-11T01:19:34;33.88;;;19.35;;
17818;SDS011;9034;50.284;19.310;2022-12-11T01:20:37;31.65;;;18.90;;
17818;SDS011;9034;50.284;19.310;2022-12-11T01:21:41;32.78;;;18.98;;
17818;SDS011;9034;50.284;19.310;2022-12-11T01:22:43;34.10;;;19.63;;
17818;SDS011;9034;50.284;19.310;2022-12-11T01:23:48;35.47;;;19.23;;
17818;SDS011;9034;50.284;19.310;2022-12-11T01:24:50;33.30;;;19.45;;
17818;SDS011;9034;50.284;19.310;2022-12-11T01:27:18;28.80;;;15.45;;
17818;SDS011;9034;50.284;19.310;2022-12-11T01:28:19;33.45;;;17.75;;
17818;SDS011;9034;50.284;19.310;2022-12-11T01:29:22;30.63;;;17.10;;
17818;SDS011;9034;50.284;19.310;2022-12-11T01:30:25;30.13;;;15.80;;
17818;SDS011;9034;50.284;19.310;2022-12-11T01:31:28;31.20;;;16.30;;
17818;SDS011;9034;50.284;19.310;2022-12-11T01:32:31;27.58;;;15.27;;
17818;SDS011;9034;50.284;19.310;2022-12-11T01:33:33;23.38;;;14.20;;
17818;SDS011;9034;50.284;19.310;2022-12-11T01:34:36;26.38;;;15.63;;
17818;SDS011;9034;50.284;19.310;2022-12-11T01:35:39;25.85;;;15.10;;
17818;SDS011;9034;50.284;19.310;2022-12-11T01:36:42;25.05;;;13.98;;
17818;SDS011;9034;50.284;19.310;2022-12-11T01:37:44;25.80;;;14.20;;
17818;SDS011;9034;50.284;19.310;2022-12-11T01:38:47;27.73;;;15.13;;
17818;SDS011;9034;50.284;19.310;2022-12-11T01:39:49;28.17;;;14.35;;
17818;SDS011;9034;50.284;19.310;2022-12-11T01:40:52;23.52;;;14.18;;
17818;SDS011;9034;50.284;19.310;2022-12-11T01:41:55;24.10;;;13.80;;
17818;SDS011;9034;50.284;19.310;2022-12-11T01:42:58;22.70;;;13.25;;
17818;SDS011;9034;50.284;19.310;2022-12-11T01:44:01;27.25;;;13.77;;
17818;SDS011;9034;50.284;19.310;2022-12-11T01:46:28;31.05;;;16.02;;
17818;SDS011;9034;50.284;19.310;2022-12-11T01:47:32;26.17;;;16.83;;
17818;SDS011;9034;50.284;19.310;2022-12-11T01:48:33;28.63;;;14.32;;
17818;SDS011;9034;50.284;19.310;2022-12-11T01:49:42;25.98;;;14.73;;
17818;SDS011;9034;50.284;19.310;2022-12-11T01:50:46;27.65;;;15.32;;
17818;SDS011;9034;50.284;19.310;2022-12-11T01:51:51;27.85;;;14.10;;
17818;SDS011;9034;50.284;19.310;2022-12-11T01:52:55;24.70;;;14.60;;
17818;SDS011;9034;50.284;19.310;2022-12-11T01:53:59;27.98;;;14.57;;
17818;SDS011;9034;50.284;19.310;2022-12-11T01:55:04;27.40;;;14.70;;
17818;SDS011;9034;50.284;19.310;2022-12-11T01:56:06;22.88;;;14.63;;
17818;SDS011;9034;50.284;19.310;2022-12-11T01:57:10;23.20;;;12.70;;
17818;SDS011;9034;50.284;19.310;2022-12-11T01:58:12;24.35;;;13.68;;
17818;SDS011;9034;50.284;19.310;2022-12-11T01:59:16;26.10;;;13.60;;
17818;SDS011;9034;50.284;19.310;2022-12-11T02:00:20;25.52;;;14.35;;
17818;SDS011;9034;50.284;19.310;2022-12-11T02:01:24;25.58;;;14.05;;
17818;SDS011;9034;50.284;19.310;2022-12-11T02:02:30;23.85;;;14.00;;
17818;SDS011;9034;50.284;19.310;2022-12-11T02:03:34;23.45;;;13.18;;
17818;SDS011;9034;50.284;19.310;2022-12-11T02:04:36;23.70;;;13.43;;
17818;SDS011;9034;50.284;19.310;2022-12-11T02:05:40;23.55;;;14.00;;
17818;SDS011;9034;50.284;19.310;2022-12-11T02:06:44;25.20;;;14.25;;
17818;SDS011;9034;50.284;19.310;2022-12-11T02:07:48;24.48;;;13.85;;
17818;SDS011;9034;50.284;19.310;2022-12-11T02:08:53;25.67;;;13.57;;
17818;SDS011;9034;50.284;19.310;2022-12-11T02:09:56;22.33;;;12.95;;
17818;SDS011;9034;50.284;19.310;2022-12-11T02:11:00;23.55;;;12.68;;
17818;SDS011;9034;50.284;19.310;2022-12-11T02:12:09;20.45;;;11.82;;
17818;SDS011;9034;50.284;19.310;2022-12-11T02:13:17;23.50;;;13.73;;
17818;SDS011;9034;50.284;19.310;2022-12-11T02:14:25;22.92;;;12.73;;
17818;SDS011;9034;50.284;19.310;2022-12-11T02:15:30;26.63;;;13.38;;
17818;SDS011;9034;50.284;19.310;2022-12-11T02:16:37;23.85;;;13.73;;
17818;SDS011;9034;50.284;19.310;2022-12-11T02:17:46;20.80;;;12.10;;
17818;SDS011;9034;50.284;19.310;2022-12-11T02:18:51;24.08;;;12.85;;
17818;SDS011;9034;50.284;19.310;2022-12-11T02:19:58;18.35;;;11.65;;
17818;SDS011;9034;50.284;19.310;2022-12-11T02:21:06;19.80;;;12.13;;
17818;SDS011;9034;50.284;19.310;2022-12-11T02:22:12;22.67;;;11.27;;
17818;SDS011;9034;50.284;19.310;2022-12-11T02:23:30;22.50;;;11.20;;
17818;SDS011;9034;50.284;19.310;2022-12-11T02:24:44;21.50;;;11.40;;
17818;SDS011;9034;50.284;19.310;2022-12-11T02:25:53;20.42;;;11.35;;
17818;SDS011;9034;50.284;19.310;2022-12-11T02:27:09;21.55;;;12.00;;
17818;SDS011;9034;50.284;19.310;2022-12-11T02:28:18;18.67;;;11.02;;
17818;SDS011;9034;50.284;19.310;2022-12-11T02:29:25;18.77;;;11.00;;
17818;SDS011;9034;50.284;19.310;2022-12-11T02:30:29;19.15;;;10.77;;
17818;SDS011;9034;50.284;19.310;2022-12-11T02:31:33;17.50;;;10.45;;
17818;SDS011;9034;50.284;19.310;2022-12-11T02:32:37;17.20;;;10.35;;
17818;SDS011;9034;50.284;19.310;2022-12-11T02:33:44;17.65;;;10.68;;
17818;SDS011;9034;50.284;19.310;2022-12-11T02:34:53;20.17;;;10.98;;
17818;SDS011;9034;50.284;19.310;2022-12-11T02:35:57;16.27;;;10.20;;
17818;SDS011;9034;50.284;19.310;2022-12-11T02:37:01;19.05;;;10.43;;
17818;SDS011;9034;50.284;19.310;2022-12-11T02:38:07;17.98;;;10.30;;
17818;SDS011;9034;50.284;19.310;2022-12-11T02:39:13;19.50;;;11.73;;
17818;SDS011;9034;50.284;19.310;2022-12-11T02:40:18;18.13;;;11.02;;
17818;SDS011;9034;50.284;19.310;2022-12-11T02:41:24;16.83;;;9.68;;
17818;SDS011;9034;50.284;19.310;2022-12-11T02:42:28;18.65;;;11.77;;
17818;SDS011;9034;50.284;19.310;2022-12-11T02:43:34;17.48;;;10.35;;
17818;SDS011;9034;50.284;19.310;2022-12-11T02:44:37;19.55;;;10.95;;
17818;SDS011;9034;50.284;19.310;2022-12-11T02:45:41;21.30;;;11.68;;
17818;SDS011;9034;50.284;19.310;2022-12-11T02:46:44;21.90;;;11.88;;
17818;SDS011;9034;50.284;19.310;2022-12-11T02:47:47;21.23;;;12.30;;
17818;SDS011;9034;50.284;19.310;2022-12-11T02:48:49;19.95;;;12.23;;
17818;SDS011;9034;50.284;19.310;2022-12-11T02:49:53;22.52;;;12.75;;
17818;SDS011;9034;50.284;19.310;2022-12-11T02:50:56;22.30;;;11.82;;
17818;SDS011;9034;50.284;19.310;2022-12-11T02:52:00;22.73;;;12.88;;
17818;SDS011;9034;50.284;19.310;2022-12-11T02:53:03;18.48;;;13.02;;
17818;SDS011;9034;50.284;19.310;2022-12-11T02:54:09;21.88;;;12.85;;
17818;SDS011;9034;50.284;19.310;2022-12-11T02:55:14;23.23;;;12.82;;
17818;SDS011;9034;50.284;19.310;2022-12-11T02:56:19;18.60;;;11.80;;
17818;SDS011;9034;50.284;19.310;2022-12-11T02:57:24;24.20;;;12.95;;
17818;SDS011;9034;50.284;19.310;2022-12-11T02:58:29;20.05;;;11.85;;
17818;SDS011;9034;50.284;19.310;2022-12-11T02:59:34;18.45;;;11.50;;
17818;SDS011;9034;50.284;19.310;2022-12-11T03:00:38;21.15;;;12.15;;
17818;SDS011;9034;50.284;19.310;2022-12-11T03:01:41;19.65;;;12.10;;
17818;SDS011;9034;50.284;19.310;2022-12-11T03:02:43;19.33;;;11.57;;
17818;SDS011;9034;50.284;19.310;2022-12-11T03:03:47;19.65;;;11.32;;
17818;SDS011;9034;50.284;19.310;2022-12-11T03:04:49;19.38;;;11.60;;
17818;SDS011;9034;50.284;19.310;2022-12-11T03:05:51;16.85;;;10.88;;
17818;SDS011;9034;50.284;19.310;2022-12-11T03:06:55;20.48;;;12.55;;
17818;SDS011;9034;50.284;19.310;2022-12-11T03:08:02;19.52;;;11.23;;
17818;SDS011;9034;50.284;19.310;2022-12-11T03:09:04;19.58;;;11.25;;
17818;SDS011;9034;50.284;19.310;2022-12-11T03:10:08;19.48;;;11.50;;
17818;SDS011;9034;50.284;19.310;2022-12-11T03:11:12;18.83;;;10.98;;
17818;SDS011;9034;50.284;19.310;2022-12-11T03:12:16;21.33;;;11.90;;
17818;SDS011;9034;50.284;19.310;2022-12-11T03:13:20;16.85;;;10.60;;
17818;SDS011;9034;50.284;19.310;2022-12-11T03:14:26;20.55;;;12.20;;
17818;SDS011;9034;50.284;19.310;2022-12-11T03:15:30;20.83;;;10.88;;
17818;SDS011;9034;50.284;19.310;2022-12-11T03:16:36;18.40;;;11.02;;
17818;SDS011;9034;50.284;19.310;2022-12-11T03:17:41;16.90;;;11.15;;
17818;SDS011;9034;50.284;19.310;2022-12-11T03:18:50;17.25;;;10.48;;
17818;SDS011;9034;50.284;19.310;2022-12-11T03:19:58;16.30;;;10.60;;
17818;SDS011;9034;50.284;19.310;2022-12-11T03:21:07;19.27;;;11.07;;
17818;SDS011;9034;50.284;19.310;2022-12-11T03:22:11;18.52;;;11.15;;
17818;SDS011;9034;50.284;19.310;2022-12-11T03:23:19;19.52;;;11.40;;
17818;SDS011;9034;50.284;19.310;2022-12-11T03:24:26;17.45;;;10.73;;
17818;SDS011;9034;50.284;19.310;2022-12-11T03:25:31;17.17;;;11.25;;
17818;SDS011;9034;50.284;19.310;2022-12-11T03:26:36;17.75;;;10.57;;
17818;SDS011;9034;50.284;19.310;2022-12-11T03:27:41;16.63;;;10.52;;
17818;SDS011;9034;50.284;19.310;2022-12-11T03:28:46;19.13;;;12.20;;
17818;SDS011;9034;50.284;19.310;2022-12-11T03:29:53;21.25;;;11.60;;
17818;SDS011;9034;50.284;19.310;2022-12-11T03:30:57;20.27;;;11.48;;
17818;SDS011;9034;50.284;19.310;2022-12-11T03:32:06;19.27;;;11.18;;
17818;SDS011;9034;50.284;19.310;2022-12-11T03:33:10;23.17;;;11.75;;
17818;SDS011;9034;50.284;19.310;2022-12-11T03:34:17;21.80;;;12.77;;
17818;SDS011;9034;50.284;19.310;2022-12-11T03:35:22;26.15;;;16.23;;
17818;SDS011;9034;50.284;19.310;2022-12-11T03:36:26;29.60;;;19.63;;
17818;SDS011;9034;50.284;19.310;2022-12-11T03:37:33;24.30;;;13.25;;
17818;SDS011;9034;50.284;19.310;2022-12-11T03:38:37;24.65;;;13.38;;
17818;SDS011;9034;50.284;19.310;2022-12-11T03:39:43;23.88;;;13.10;;
17818;SDS011;9034;50.284;19.310;2022-12-11T03:40:49;20.67;;;13.18;;
17818;SDS011;9034;50.284;19.310;2022-12-11T03:41:53;23.55;;;14.32;;
17818;SDS011;9034;50.284;19.310;2022-12-11T03:42:56;24.88;;;13.35;;
17818;SDS011;9034;50.284;19.310;2022-12-11T03:43:59;21.85;;;13.65;;
17818;SDS011;9034;50.284;19.310;2022-12-11T03:45:01;25.02;;;14.85;;
17818;SDS011;9034;50.284;19.310;2022-12-11T03:46:07;25.00;;;13.80;;
17818;SDS011;9034;50.284;19.310;2022-12-11T03:47:10;29.40;;;15.40;;
17818;SDS011;9034;50.284;19.310;2022-12-11T03:48:17;27.13;;;14.60;;
17818;SDS011;9034;50.284;19.310;2022-12-11T03:49:20;23.70;;;14.15;;
17818;SDS011;9034;50.284;19.310;2022-12-11T03:50:25;25.75;;;14.45;;
17818;SDS011;9034;50.284;19.310;2022-12-11T03:51:29;24.55;;;12.88;;
17818;SDS011;9034;50.284;19.310;2022-12-11T03:52:33;24.83;;;14.00;;
17818;SDS011;9034;50.284;19.310;2022-12-11T03:53:42;21.73;;;14.32;;
17818;SDS011;9034;50.284;19.310;2022-12-11T03:54:46;29.40;;;16.40;;
17818;SDS011;9034;50.284;19.310;2022-12-11T03:55:50;23.85;;;13.68;;
17818;SDS011;9034;50.284;19.310;2022-12-11T03:56:54;28.23;;;14.25;;
17818;SDS011;9034;50.284;19.310;2022-12-11T03:57:56;28.27;;;15.35;;
17818;SDS011;9034;50.284;19.310;2022-12-11T03:58:59;27.85;;;15.90;;
17818;SDS011;9034;50.284;19.310;2022-12-11T04:00:01;23.65;;;13.77;;
17818;SDS011;9034;50.284;19.310;2022-12-11T04:01:13;24.73;;;14.40;;
17818;SDS011;9034;50.284;19.310;2022-12-11T04:02:15;21.77;;;14.27;;
17818;SDS011;9034;50.284;19.310;2022-12-11T04:03:18;26.90;;;15.00;;
17818;SDS011;9034;50.284;19.310;2022-12-11T04:04:20;22.42;;;12.85;;
17818;SDS011;9034;50.284;19.310;2022-12-11T04:05:23;20.05;;;12.85;;
17818;SDS011;9034;50.284;19.310;2022-12-11T04:06:24;23.67;;;13.93;;
17818;SDS011;9034;50.284;19.310;2022-12-11T04:07:27;24.35;;;13.52;;
17818;SDS011;9034;50.284;19.310;2022-12-11T04:08:29;22.45;;;13.10;;
17818;SDS011;9034;50.284;19.310;2022-12-11T04:09:32;22.20;;;14.07;;
17818;SDS011;9034;50.284;19.310;2022-12-11T04:10:34;26.45;;;14.95;;
17818;SDS011;9034;50.284;19.310;2022-12-11T04:11:37;20.70;;;13.73;;
17818;SDS011;9034;50.284;19.310;2022-12-11T04:12:39;24.48;;;14.60;;
17818;SDS011;9034;50.284;19.310;2022-12-11T04:13:42;24.73;;;14.23;;
17818;SDS011;9034;50.284;19.310;2022-12-11T04:14:44;22.88;;;14.52;;
17818;SDS011;9034;50.284;19.310;2022-12-11T04:16:04;20.25;;;13.57;;
17818;SDS011;9034;50.284;19.310;2022-12-11T04:17:09;23.35;;;14.60;;
17818;SDS011;9034;50.284;19.310;2022-12-11T04:18:11;22.42;;;13.43;;
17818;SDS011;9034;50.284;19.310;2022-12-11T04:19:31;25.38;;;14.48;;
17818;SDS011;9034;50.284;19.310;2022-12-11T04:20:52;21.55;;;12.57;;
17818;SDS011;9034;50.284;19.310;2022-12-11T04:22:12;22.05;;;12.27;;
17818;SDS011;9034;50.284;19.310;2022-12-11T04:23:36;19.75;;;12.00;;
17818;SDS011;9034;50.284;19.310;2022-12-11T04:24:56;20.88;;;12.25;;
17818;SDS011;9034;50.284;19.310;2022-12-11T04:26:02;23.45;;;13.30;;
17818;SDS011;9034;50.284;19.310;2022-12-11T04:27:05;24.48;;;13.88;;
17818;SDS011;9034;50.284;19.310;2022-12-11T04:28:08;22.30;;;14.23;;
17818;SDS011;9034;50.284;19.310;2022-12-11T04:29:09;22.77;;;13.02;;
17818;SDS011;9034;50.284;19.310;2022-12-11T04:30:14;23.33;;;14.40;;
17818;SDS011;9034;50.284;19.310;2022-12-11T04:31:17;21.98;;;13.55;;
17818;SDS011;9034;50.284;19.310;2022-12-11T04:32:24;23.60;;;13.68;;
17818;SDS011;9034;50.284;19.310;2022-12-11T04:33:26;22.95;;;14.27;;
17818;SDS011;9034;50.284;19.310;2022-12-11T04:34:29;22.13;;;13.60;;
17818;SDS011;9034;50.284;19.310;2022-12-11T04:35:30;22.42;;;14.05;;
17818;SDS011;9034;50.284;19.310;2022-12-11T04:36:33;20.58;;;13.57;;
17818;SDS011;9034;50.284;19.310;2022-12-11T04:37:36;22.92;;;13.73;;
17818;SDS011;9034;50.284;19.310;2022-12-11T04:38:39;21.90;;;13.18;;
17818;SDS011;9034;50.284;19.310;2022-12-11T04:39:41;22.75;;;13.30;;
17818;SDS011;9034;50.284;19.310;2022-12-11T04:40:43;24.45;;;13.45;;
17818;SDS011;9034;50.284;19.310;2022-12-11T04:41:45;20.70;;;13.18;;
17818;SDS011;9034;50.284;19.310;2022-12-11T04:42:48;21.38;;;13.20;;
17818;SDS011;9034;50.284;19.310;2022-12-11T04:43:50;24.52;;;14.20;;
17818;SDS011;9034;50.284;19.310;2022-12-11T04:44:52;21.25;;;14.05;;
17818;SDS011;9034;50.284;19.310;2022-12-11T04:46:01;24.63;;;14.07;;
17818;SDS011;9034;50.284;19.310;2022-12-11T04:47:04;22.67;;;13.40;;
17818;SDS011;9034;50.284;19.310;2022-12-11T04:48:08;21.45;;;13.90;;
17818;SDS011;9034;50.284;19.310;2022-12-11T04:49:10;21.83;;;14.05;;
17818;SDS011;9034;50.284;19.310;2022-12-11T04:50:13;22.80;;;14.02;;
17818;SDS011;9034;50.284;19.310;2022-12-11T04:51:17;23.23;;;15.00;;
17818;SDS011;9034;50.284;19.310;2022-12-11T04:52:19;23.95;;;13.90;;
17818;SDS011;9034;50.284;19.310;2022-12-11T04:53:21;23.75;;;15.00;;
17818;SDS011;9034;50.284;19.310;2022-12-11T04:54:23;26.70;;;15.45;;
17818;SDS011;9034;50.284;19.310;2022-12-11T04:55:26;23.02;;;13.98;;
17818;SDS011;9034;50.284;19.310;2022-12-11T04:56:28;21.73;;;14.73;;
17818;SDS011;9034;50.284;19.310;2022-12-11T04:57:31;23.15;;;14.52;;
17818;SDS011;9034;50.284;19.310;2022-12-11T04:58:33;23.85;;;14.73;;
17818;SDS011;9034;50.284;19.310;2022-12-11T04:59:37;24.50;;;14.82;;
17818;SDS011;9034;50.284;19.310;2022-12-11T05:00:39;23.73;;;14.75;;
17818;SDS011;9034;50.284;19.310;2022-12-11T05:01:42;25.23;;;15.32;;
17818;SDS011;9034;50.284;19.310;2022-12-11T05:02:44;23.42;;;15.00;;
17818;SDS011;9034;50.284;19.310;2022-12-11T05:03:48;26.00;;;15.48;;
17818;SDS011;9034;50.284;19.310;2022-12-11T05:04:50;26.20;;;15.85;;
17818;SDS011;9034;50.284;19.310;2022-12-11T05:05:53;22.48;;;13.98;;
17818;SDS011;9034;50.284;19.310;2022-12-11T05:06:55;27.15;;;15.45;;
17818;SDS011;9034;50.284;19.310;2022-12-11T05:07:58;26.52;;;15.55;;
17818;SDS011;9034;50.284;19.310;2022-12-11T05:09:00;24.30;;;14.60;;
17818;SDS011;9034;50.284;19.310;2022-12-11T05:10:03;28.35;;;15.85;;
17818;SDS011;9034;50.284;19.310;2022-12-11T05:11:06;25.95;;;15.00;;
17818;SDS011;9034;50.284;19.310;2022-12-11T05:12:11;26.88;;;16.70;;
17818;SDS011;9034;50.284;19.310;2022-12-11T05:13:12;25.85;;;16.08;;
17818;SDS011;9034;50.284;19.310;2022-12-11T05:14:15;22.75;;;14.80;;
17818;SDS011;9034;50.284;19.310;2022-12-11T05:15:17;25.13;;;14.93;;
17818;SDS011;9034;50.284;19.310;2022-12-11T05:16:20;24.60;;;14.90;;
17818;SDS011;9034;50.284;19.310;2022-12-11T05:17:22;22.13;;;14.23;;
17818;SDS011;9034;50.284;19.310;2022-12-11T05:18:25;24.83;;;14.57;;
17818;SDS011;9034;50.284;19.310;2022-12-11T05:19:28;22.52;;;14.30;;
17818;SDS011;9034;50.284;19.310;2022-12-11T05:20:31;25.27;;;15.05;;
17818;SDS011;9034;50.284;19.310;2022-12-11T05:21:33;25.20;;;14.45;;
17818;SDS011;9034;50.284;19.310;2022-12-11T05:22:36;23.17;;;14.55;;
17818;SDS011;9034;50.284;19.310;2022-12-11T05:23:38;28.08;;;15.90;;
17818;SDS011;9034;50.284;19.310;2022-12-11T05:24:41;22.70;;;13.40;;
17818;SDS011;9034;50.284;19.310;2022-12-11T05:25:43;23.40;;;13.57;;
17818;SDS011;9034;50.284;19.310;2022-12-11T05:26:53;21.92;;;12.50;;
17818;SDS011;9034;50.284;19.310;2022-12-11T05:27:54;20.00;;;12.65;;
17818;SDS011;9034;50.284;19.310;2022-12-11T05:28:57;21.63;;;13.98;;
17818;SDS011;9034;50.284;19.310;2022-12-11T05:29:59;24.05;;;14.40;;
17818;SDS011;9034;50.284;19.310;2022-12-11T05:31:03;23.10;;;14.05;;
17818;SDS011;9034;50.284;19.310;2022-12-11T05:32:06;23.13;;;14.00;;
17818;SDS011;9034;50.284;19.310;2022-12-11T05:33:09;21.55;;;13.02;;
17818;SDS011;9034;50.284;19.310;2022-12-11T05:34:11;20.00;;;13.43;;
17818;SDS011;9034;50.284;19.310;2022-12-11T05:35:16;21.65;;;13.07;;
17818;SDS011;9034;50.284;19.310;2022-12-11T05:36:19;18.92;;;12.88;;
17818;SDS011;9034;50.284;19.310;2022-12-11T05:37:23;22.13;;;13.88;;
17818;SDS011;9034;50.284;19.310;2022-12-11T05:38:25;23.05;;;14.13;;
17818;SDS011;9034;50.284;19.310;2022-12-11T05:39:28;19.80;;;12.00;;
17818;SDS011;9034;50.284;19.310;2022-12-11T05:40:31;21.23;;;13.43;;
17818;SDS011;9034;50.284;19.310;2022-12-11T05:41:32;21.08;;;12.45;;
17818;SDS011;9034;50.284;19.310;2022-12-11T05:42:35;21.48;;;13.23;;
17818;SDS011;9034;50.284;19.310;2022-12-11T05:43:37;22.02;;;13.52;;
17818;SDS011;9034;50.284;19.310;2022-12-11T05:44:40;22.63;;;12.70;;
17818;SDS011;9034;50.284;19.310;2022-12-11T05:45:41;20.73;;;13.68;;
17818;SDS011;9034;50.284;19.310;2022-12-11T05:46:44;24.52;;;14.00;;
17818;SDS011;9034;50.284;19.310;2022-12-11T05:47:47;23.63;;;13.38;;
17818;SDS011;9034;50.284;19.310;2022-12-11T05:48:50;23.45;;;13.38;;
17818;SDS011;9034;50.284;19.310;2022-12-11T05:49:54;25.10;;;14.93;;
17818;SDS011;9034;50.284;19.310;2022-12-11T05:50:58;23.33;;;13.07;;
17818;SDS011;9034;50.284;19.310;2022-12-11T05:52:01;26.10;;;14.68;;
17818;SDS011;9034;50.284;19.310;2022-12-11T05:53:02;21.77;;;13.30;;
17818;SDS011;9034;50.284;19.310;2022-12-11T05:54:06;23.50;;;13.55;;
17818;SDS011;9034;50.284;19.310;2022-12-11T05:55:07;21.05;;;13.23;;
17818;SDS011;9034;50.284;19.310;2022-12-11T05:56:12;22.40;;;13.23;;
17818;SDS011;9034;50.284;19.310;2022-12-11T05:57:14;20.58;;;13.18;;
17818;SDS011;9034;50.284;19.310;2022-12-11T05:58:17;20.88;;;12.93;;
17818;SDS011;9034;50.284;19.310;2022-12-11T05:59:19;20.77;;;13.38;;
17818;SDS011;9034;50.284;19.310;2022-12-11T06:00:22;21.17;;;13.68;;
17818;SDS011;9034;50.284;19.310;2022-12-11T06:01:24;20.83;;;12.45;;
17818;SDS011;9034;50.284;19.310;2022-12-11T06:02:28;23.67;;;13.63;;
17818;SDS011;9034;50.284;19.310;2022-12-11T06:03:30;22.52;;;13.20;;
17818;SDS011;9034;50.284;19.310;2022-12-11T06:04:33;22.95;;;13.38;;
17818;SDS011;9034;50.284;19.310;2022-12-11T06:05:36;24.02;;;13.52;;
17818;SDS011;9034;50.284;19.310;2022-12-11T06:06:40;22.55;;;13.25;;
17818;SDS011;9034;50.284;19.310;2022-12-11T06:07:44;24.20;;;13.77;;
17818;SDS011;9034;50.284;19.310;2022-12-11T06:08:48;21.83;;;13.30;;
17818;SDS011;9034;50.284;19.310;2022-12-11T06:09:51;22.20;;;13.48;;
17818;SDS011;9034;50.284;19.310;2022-12-11T06:10:52;25.35;;;13.45;;
17818;SDS011;9034;50.284;19.310;2022-12-11T06:11:55;22.58;;;12.80;;
17818;SDS011;9034;50.284;19.310;2022-12-11T06:12:57;22.13;;;13.27;;
17818;SDS011;9034;50.284;19.310;2022-12-11T06:14:00;21.48;;;13.73;;
17818;SDS011;9034;50.284;19.310;2022-12-11T06:15:02;22.35;;;13.90;;
17818;SDS011;9034;50.284;19.310;2022-12-11T06:16:06;24.23;;;13.18;;
17818;SDS011;9034;50.284;19.310;2022-12-11T06:17:09;25.33;;;14.30;;